UAE14X OERK-OMDB
Flight info
| Callsign | UAE14X |
|---|---|
| Flight time | N/A |
| Altitude | 41000 |
| Route | OERK/15L RESAL T533 RAPMA DCT KUVSO DCT RIBOT M550 GOLGU M318 RURAL Q317 LORID |
| Aircraft | A359/H-SDE2E3GHIJ3J4J5LM1ORWXY/LB1D1 |
Departure
| Time | N/A |
|---|---|
| Airport | King Khalid International Airport (OERK) |
Arrival
| Time | 2026-04-21 16:27 |
|---|---|
| Airport | Dubai International Airport (OMDB) |
| Time | Latitude | Longitude | Altitude | Speed | Heading |
|---|---|---|---|---|---|
| 2026-04-21 15:57 | 24.43617 | 54.55495 | 39419 ft | 440 kts | 335° |
| 2026-04-21 15:57 | 24.46532 | 54.54523 | 38559 ft | 447 kts | 337° |
| 2026-04-21 15:57 | 24.49557 | 54.53668 | 37607 ft | 452 kts | 340° |
| 2026-04-21 15:57 | 24.52657 | 54.52931 | 36589 ft | 460 kts | 343° |
| 2026-04-21 15:58 | 24.55841 | 54.52321 | 35604 ft | 468 kts | 346° |
| 2026-04-21 15:58 | 24.59085 | 54.51795 | 34658 ft | 475 kts | 347° |
| 2026-04-21 15:58 | 24.62382 | 54.51296 | 33717 ft | 481 kts | 349° |
| 2026-04-21 15:58 | 24.65717 | 54.50796 | 32680 ft | 487 kts | 349° |
| 2026-04-21 15:59 | 24.69108 | 54.50376 | 31665 ft | 495 kts | 356° |
| 2026-04-21 15:59 | 24.72549 | 54.50772 | 30708 ft | 505 kts | 11° |
| 2026-04-21 15:59 | 24.75868 | 54.52131 | 29747 ft | 514 kts | 24° |
| 2026-04-21 15:59 | 24.78973 | 54.54125 | 28682 ft | 519 kts | 31° |
| 2026-04-21 16:00 | 24.81945 | 54.56389 | 27627 ft | 522 kts | 33° |
| 2026-04-21 16:00 | 24.84894 | 54.58743 | 26652 ft | 523 kts | 33° |
| 2026-04-21 16:00 | 24.87845 | 54.61076 | 25885 ft | 520 kts | 33° |
| 2026-04-21 16:00 | 24.90809 | 54.63327 | 25170 ft | 515 kts | 31° |
| 2026-04-21 16:01 | 24.93772 | 54.65511 | 24480 ft | 510 kts | 31° |
| 2026-04-21 16:01 | 24.96677 | 54.67746 | 23815 ft | 507 kts | 33° |
| 2026-04-21 16:01 | 24.99517 | 54.70014 | 23106 ft | 503 kts | 33° |
| 2026-04-21 16:01 | 25.02336 | 54.72256 | 22340 ft | 497 kts | 33° |
| 2026-04-21 16:02 | 25.05135 | 54.74470 | 21651 ft | 492 kts | 33° |
| 2026-04-21 16:02 | 25.07900 | 54.76648 | 20984 ft | 485 kts | 33° |
| 2026-04-21 16:02 | 25.10627 | 54.78793 | 20332 ft | 479 kts | 33° |
| 2026-04-21 16:02 | 25.13335 | 54.80924 | 19536 ft | 477 kts | 33° |
| 2026-04-21 16:03 | 25.16027 | 54.83040 | 18831 ft | 473 kts | 33° |
| 2026-04-21 16:03 | 25.18603 | 54.85298 | 18166 ft | 471 kts | 38° |
| 2026-04-21 16:03 | 25.21064 | 54.87657 | 17394 ft | 467 kts | 39° |
| 2026-04-21 16:03 | 25.23498 | 54.89986 | 16671 ft | 462 kts | 39° |
| 2026-04-21 16:04 | 25.25930 | 54.92291 | 15941 ft | 457 kts | 39° |
| 2026-04-21 16:04 | 25.28319 | 54.94572 | 15197 ft | 453 kts | 43° |
| 2026-04-21 16:04 | 25.30184 | 54.97352 | 14513 ft | 449 kts | 63° |
| 2026-04-21 16:04 | 25.31439 | 55.00476 | 13867 ft | 443 kts | 69° |
| 2026-04-21 16:05 | 25.32616 | 55.03615 | 13152 ft | 438 kts | 68° |
| 2026-04-21 16:05 | 25.33820 | 55.06682 | 12501 ft | 432 kts | 66° |
| 2026-04-21 16:05 | 25.35036 | 55.09666 | 12138 ft | 418 kts | 66° |
| 2026-04-21 16:05 | 25.36048 | 55.12591 | 12041 ft | 396 kts | 79° |
| 2026-04-21 16:06 | 25.36227 | 55.15525 | 12043 ft | 373 kts | 94° |
| 2026-04-21 16:06 | 25.36109 | 55.18313 | 12040 ft | 353 kts | 95° |
| 2026-04-21 16:06 | 25.35996 | 55.20943 | 12040 ft | 334 kts | 94° |
| 2026-04-21 16:06 | 25.35909 | 55.23442 | 12039 ft | 316 kts | 94° |
| 2026-04-21 16:07 | 25.35838 | 55.25809 | 12038 ft | 300 kts | 94° |
| 2026-04-21 16:07 | 25.35779 | 55.28049 | 12036 ft | 283 kts | 94° |
| 2026-04-21 16:07 | 25.35726 | 55.30187 | 12038 ft | 275 kts | 94° |
| 2026-04-21 16:07 | 25.35587 | 55.32279 | 11975 ft | 270 kts | 104° |
| 2026-04-21 16:08 | 25.33927 | 55.35882 | 11265 ft | 264 kts | 126° |
| 2026-04-21 16:08 | 25.32947 | 55.37596 | 10927 ft | 263 kts | 125° |
| 2026-04-21 16:08 | 25.31975 | 55.39309 | 10607 ft | 262 kts | 125° |
| 2026-04-21 16:09 | 25.31009 | 55.41025 | 10140 ft | 268 kts | 124° |
| 2026-04-21 16:09 | 25.29993 | 55.42831 | 9286 ft | 287 kts | 124° |
| 2026-04-21 16:09 | 25.28902 | 55.44778 | 8281 ft | 309 kts | 123° |
| 2026-04-21 16:09 | 25.27742 | 55.46857 | 7295 ft | 326 kts | 122° |
| 2026-04-21 16:10 | 25.26541 | 55.49017 | 6558 ft | 333 kts | 122° |
| 2026-04-21 16:10 | 25.25341 | 55.51183 | 6151 ft | 326 kts | 122° |
| 2026-04-21 16:10 | 25.24179 | 55.53273 | 6046 ft | 310 kts | 122° |
| 2026-04-21 16:10 | 25.23089 | 55.55240 | 6038 ft | 291 kts | 122° |
| 2026-04-21 16:11 | 25.22055 | 55.57098 | 5918 ft | 278 kts | 122° |
| 2026-04-21 16:11 | 25.21062 | 55.58879 | 5760 ft | 267 kts | 122° |
| 2026-04-21 16:11 | 25.20106 | 55.60593 | 5618 ft | 256 kts | 122° |
| 2026-04-21 16:11 | 25.19194 | 55.62234 | 5457 ft | 247 kts | 122° |
| 2026-04-21 16:12 | 25.18603 | 55.63299 | 5309 ft | 243 kts | 122° |
| 2026-04-21 16:12 | 25.17429 | 55.65403 | 4962 ft | 238 kts | 122° |
| 2026-04-21 16:12 | 25.16564 | 55.66951 | 4673 ft | 236 kts | 121° |
| 2026-04-21 16:12 | 25.15711 | 55.68485 | 4396 ft | 233 kts | 121° |
| 2026-04-21 16:13 | 25.14865 | 55.70003 | 4116 ft | 231 kts | 121° |
| 2026-04-21 16:13 | 25.14019 | 55.71516 | 4041 ft | 232 kts | 120° |
| 2026-04-21 16:13 | 25.13173 | 55.73027 | 3788 ft | 231 kts | 120° |
| 2026-04-21 16:13 | 25.12334 | 55.74532 | 3472 ft | 231 kts | 119° |
| 2026-04-21 16:14 | 25.11498 | 55.76034 | 3220 ft | 229 kts | 119° |
| 2026-04-21 16:14 | 25.10669 | 55.77515 | 3055 ft | 226 kts | 119° |
| 2026-04-21 16:14 | 25.09836 | 55.79002 | 3026 ft | 226 kts | 121° |
| 2026-04-21 16:14 | 25.09022 | 55.80459 | 3028 ft | 223 kts | 120° |
| 2026-04-21 16:15 | 25.08215 | 55.81913 | 3031 ft | 221 kts | 121° |
| 2026-04-21 16:15 | 25.07380 | 55.83332 | 3033 ft | 221 kts | 126° |
| 2026-04-21 16:15 | 25.06248 | 55.84474 | 3035 ft | 221 kts | 149° |
| 2026-04-21 16:15 | 25.04781 | 55.84973 | 3038 ft | 223 kts | 175° |
| 2026-04-21 16:16 | 25.03252 | 55.84698 | 3037 ft | 227 kts | 201° |
| 2026-04-21 16:16 | 25.01931 | 55.83790 | 3043 ft | 217 kts | 223° |
| 2026-04-21 16:16 | 25.01127 | 55.82503 | 2963 ft | 196 kts | 246° |
| 2026-04-21 16:16 | 25.00885 | 55.81050 | 2539 ft | 195 kts | 272° |
| 2026-04-21 16:17 | 25.01220 | 55.79634 | 2258 ft | 188 kts | 297° |
| 2026-04-21 16:17 | 25.01872 | 55.78406 | 2395 ft | 186 kts | 303° |
| 2026-04-21 16:17 | 25.02570 | 55.77183 | 2762 ft | 189 kts | 305° |
| 2026-04-21 16:17 | 25.03312 | 55.75998 | 2993 ft | 188 kts | 310° |
| 2026-04-21 16:18 | 25.04059 | 55.74817 | 3038 ft | 188 kts | 306° |
| 2026-04-21 16:18 | 25.04772 | 55.73608 | 3042 ft | 188 kts | 305° |
| 2026-04-21 16:18 | 25.05467 | 55.72384 | 3038 ft | 188 kts | 304° |
| 2026-04-21 16:18 | 25.06141 | 55.71159 | 3034 ft | 187 kts | 303° |
| 2026-04-21 16:19 | 25.06803 | 55.69921 | 3033 ft | 188 kts | 303° |
| 2026-04-21 16:19 | 25.07453 | 55.68668 | 3045 ft | 189 kts | 302° |
| 2026-04-21 16:19 | 25.08113 | 55.67420 | 3030 ft | 188 kts | 303° |
| 2026-04-21 16:19 | 25.08785 | 55.66195 | 3036 ft | 185 kts | 304° |
| 2026-04-21 16:20 | 25.09453 | 55.65000 | 3030 ft | 182 kts | 304° |
| 2026-04-21 16:20 | 25.10110 | 55.63830 | 3043 ft | 182 kts | 304° |
| 2026-04-21 16:20 | 25.10774 | 55.62641 | 3027 ft | 172 kts | 303° |
| 2026-04-21 16:20 | 25.11354 | 55.61584 | 3023 ft | 152 kts | 304° |
| 2026-04-21 16:21 | 25.11891 | 55.60608 | 3043 ft | 148 kts | 305° |
| 2026-04-21 16:21 | 25.12430 | 55.59640 | 3051 ft | 148 kts | 304° |
| 2026-04-21 16:21 | 25.12973 | 55.58670 | 3055 ft | 149 kts | 304° |
| 2026-04-21 16:21 | 25.13520 | 55.57690 | 3055 ft | 150 kts | 304° |
| 2026-04-21 16:22 | 25.14064 | 55.56709 | 3059 ft | 150 kts | 304° |
| 2026-04-21 16:22 | 25.14606 | 55.55729 | 3058 ft | 149 kts | 305° |
| 2026-04-21 16:22 | 25.15151 | 55.54748 | 3041 ft | 151 kts | 305° |
| 2026-04-21 16:22 | 25.15700 | 55.53757 | 2877 ft | 151 kts | 304° |
| 2026-04-21 16:23 | 25.16243 | 55.52773 | 2675 ft | 149 kts | 305° |
| 2026-04-21 16:23 | 25.16782 | 55.51800 | 2483 ft | 148 kts | 306° |
| 2026-04-21 16:23 | 25.17316 | 55.50835 | 2308 ft | 146 kts | 306° |
| 2026-04-21 16:23 | 25.17845 | 55.49880 | 2122 ft | 146 kts | 306° |
| 2026-04-21 16:24 | 25.18366 | 55.48940 | 1931 ft | 145 kts | 306° |
| 2026-04-21 16:24 | 25.18894 | 55.47985 | 1740 ft | 144 kts | 307° |
| 2026-04-21 16:24 | 25.19416 | 55.47042 | 1574 ft | 144 kts | 307° |
| 2026-04-21 16:24 | 25.19941 | 55.46097 | 1380 ft | 144 kts | 307° |
| 2026-04-21 16:25 | 25.20462 | 55.45155 | 1193 ft | 143 kts | 306° |
| 2026-04-21 16:25 | 25.20980 | 55.44219 | 1014 ft | 143 kts | 305° |
| 2026-04-21 16:25 | 25.21497 | 55.43286 | 828 ft | 143 kts | 304° |
| 2026-04-21 16:25 | 25.22008 | 55.42361 | 657 ft | 143 kts | 303° |
| 2026-04-21 16:26 | 25.22521 | 55.41430 | 469 ft | 140 kts | 303° |
| 2026-04-21 16:26 | 25.23029 | 55.40514 | 297 ft | 139 kts | 302° |
| 2026-04-21 16:26 | 25.23538 | 55.39596 | 107 ft | 141 kts | 303° |
| 2026-04-21 16:26 | 25.24046 | 55.38691 | 30 ft | 136 kts | 302° |
| 2026-04-21 16:27 | 25.24454 | 55.37947 | 31 ft | 96 kts | 301° |
| 2026-04-21 16:27 | 25.24732 | 55.37414 | 29 ft | 66 kts | 293° |
| 2026-04-21 16:27 | 25.24782 | 55.37130 | 30 ft | 29 kts | 274° |
| 2026-04-21 16:27 | 25.24823 | 55.36908 | 28 ft | 30 kts | 294° |
| 2026-04-21 16:28 | 25.24888 | 55.36695 | 28 ft | 29 kts | 290° |
| 2026-04-21 16:28 | 25.24904 | 55.36565 | 28 ft | 10 kts | 232° |
| 2026-04-21 16:28 | 25.24865 | 55.36493 | 27 ft | 13 kts | 236° |
| 2026-04-21 16:28 | 25.24802 | 55.36437 | 27 ft | 1 kts | 211° |
| 2026-04-21 16:30 | 25.22291 | 55.41849 | 570 ft | 142 kts | 303° |